sensor_id;sensor_type;location;lat;lon;timestamp;temperature;humidity
7117;DHT22;3600;48.568;7.870;2024-02-21T00:02:25;7.70;99.90
7117;DHT22;3600;48.568;7.870;2024-02-21T00:04:52;7.70;99.90
7117;DHT22;3600;48.568;7.870;2024-02-21T00:07:19;7.60;99.90
7117;DHT22;3600;48.568;7.870;2024-02-21T00:09:46;7.60;99.90
7117;DHT22;3600;48.568;7.870;2024-02-21T00:12:13;7.60;99.90
7117;DHT22;3600;48.568;7.870;2024-02-21T00:14:40;7.60;99.90
7117;DHT22;3600;48.568;7.870;2024-02-21T00:17:07;7.60;99.90
7117;DHT22;3600;48.568;7.870;2024-02-21T00:19:35;7.60;99.90
7117;DHT22;3600;48.568;7.870;2024-02-21T00:22:03;7.60;99.90
7117;DHT22;3600;48.568;7.870;2024-02-21T00:24:30;7.60;99.90
7117;DHT22;3600;48.568;7.870;2024-02-21T00:26:57;7.60;99.90
7117;DHT22;3600;48.568;7.870;2024-02-21T00:29:24;7.60;99.90
7117;DHT22;3600;48.568;7.870;2024-02-21T00:31:51;7.60;99.90
7117;DHT22;3600;48.568;7.870;2024-02-21T00:34:18;7.60;99.90
7117;DHT22;3600;48.568;7.870;2024-02-21T00:36:45;7.60;99.90
7117;DHT22;3600;48.568;7.870;2024-02-21T00:39:12;7.60;99.90
7117;DHT22;3600;48.568;7.870;2024-02-21T00:41:38;7.70;99.90
7117;DHT22;3600;48.568;7.870;2024-02-21T00:44:05;7.70;99.90
7117;DHT22;3600;48.568;7.870;2024-02-21T00:46:33;7.70;99.90
7117;DHT22;3600;48.568;7.870;2024-02-21T00:48:59;7.70;99.90
7117;DHT22;3600;48.568;7.870;2024-02-21T00:51:26;7.70;99.90
7117;DHT22;3600;48.568;7.870;2024-02-21T00:53:53;7.60;99.90
7117;DHT22;3600;48.568;7.870;2024-02-21T00:56:20;7.60;99.90
7117;DHT22;3600;48.568;7.870;2024-02-21T00:58:47;7.60;99.90
7117;DHT22;3600;48.568;7.870;2024-02-21T01:01:21;7.60;99.90
7117;DHT22;3600;48.568;7.870;2024-02-21T01:03:49;7.60;99.90
7117;DHT22;3600;48.568;7.870;2024-02-21T01:06:16;7.50;99.90
7117;DHT22;3600;48.568;7.870;2024-02-21T01:08:43;7.60;99.90
7117;DHT22;3600;48.568;7.870;2024-02-21T01:11:09;7.50;99.90
7117;DHT22;3600;48.568;7.870;2024-02-21T01:13:36;7.50;99.90
7117;DHT22;3600;48.568;7.870;2024-02-21T01:16:03;7.40;99.90
7117;DHT22;3600;48.568;7.870;2024-02-21T01:18:31;7.50;99.90
7117;DHT22;3600;48.568;7.870;2024-02-21T01:20:58;7.50;99.90
7117;DHT22;3600;48.568;7.870;2024-02-21T01:23:25;7.50;99.90
7117;DHT22;3600;48.568;7.870;2024-02-21T01:25:52;7.50;99.90
7117;DHT22;3600;48.568;7.870;2024-02-21T01:28:19;7.40;99.90
7117;DHT22;3600;48.568;7.870;2024-02-21T01:30:48;7.50;99.90
7117;DHT22;3600;48.568;7.870;2024-02-21T01:33:15;7.40;99.90
7117;DHT22;3600;48.568;7.870;2024-02-21T01:35:42;7.40;99.90
7117;DHT22;3600;48.568;7.870;2024-02-21T01:38:09;7.40;99.90
7117;DHT22;3600;48.568;7.870;2024-02-21T01:40:37;7.40;99.90
7117;DHT22;3600;48.568;7.870;2024-02-21T01:43:15;7.40;99.90
7117;DHT22;3600;48.568;7.870;2024-02-21T01:45:42;7.30;99.90
7117;DHT22;3600;48.568;7.870;2024-02-21T01:48:09;7.30;99.90
7117;DHT22;3600;48.568;7.870;2024-02-21T01:50:36;7.30;99.90
7117;DHT22;3600;48.568;7.870;2024-02-21T01:53:03;7.30;99.90
7117;DHT22;3600;48.568;7.870;2024-02-21T01:55:30;7.30;99.90
7117;DHT22;3600;48.568;7.870;2024-02-21T01:57:57;7.30;99.90
7117;DHT22;3600;48.568;7.870;2024-02-21T02:00:24;7.30;99.90
7117;DHT22;3600;48.568;7.870;2024-02-21T02:02:51;7.20;99.90
7117;DHT22;3600;48.568;7.870;2024-02-21T02:05:19;7.20;99.90
7117;DHT22;3600;48.568;7.870;2024-02-21T02:07:47;7.20;99.90
7117;DHT22;3600;48.568;7.870;2024-02-21T02:10:14;7.10;99.90
7117;DHT22;3600;48.568;7.870;2024-02-21T02:12:41;7.20;99.90
7117;DHT22;3600;48.568;7.870;2024-02-21T02:15:08;7.20;99.90
7117;DHT22;3600;48.568;7.870;2024-02-21T02:17:35;7.30;99.90
7117;DHT22;3600;48.568;7.870;2024-02-21T02:20:02;7.30;99.90
7117;DHT22;3600;48.568;7.870;2024-02-21T02:22:31;7.30;99.90
7117;DHT22;3600;48.568;7.870;2024-02-21T02:24:59;7.30;99.90
7117;DHT22;3600;48.568;7.870;2024-02-21T02:27:25;7.20;99.90
7117;DHT22;3600;48.568;7.870;2024-02-21T02:29:52;7.20;99.90
7117;DHT22;3600;48.568;7.870;2024-02-21T02:32:19;7.30;99.90
7117;DHT22;3600;48.568;7.870;2024-02-21T02:34:46;7.20;99.90
7117;DHT22;3600;48.568;7.870;2024-02-21T02:37:13;7.20;99.90
7117;DHT22;3600;48.568;7.870;2024-02-21T02:39:40;7.20;99.90
7117;DHT22;3600;48.568;7.870;2024-02-21T02:42:06;7.10;99.90
7117;DHT22;3600;48.568;7.870;2024-02-21T02:44:33;7.10;99.90
7117;DHT22;3600;48.568;7.870;2024-02-21T02:47:00;7.20;99.90
7117;DHT22;3600;48.568;7.870;2024-02-21T02:49:27;7.20;99.90
7117;DHT22;3600;48.568;7.870;2024-02-21T02:51:54;7.20;99.90
7117;DHT22;3600;48.568;7.870;2024-02-21T02:54:20;7.20;99.90
7117;DHT22;3600;48.568;7.870;2024-02-21T02:56:47;7.10;99.90
7117;DHT22;3600;48.568;7.870;2024-02-21T02:59:16;7.10;99.90
7117;DHT22;3600;48.568;7.870;2024-02-21T03:01:49;7.10;99.90
7117;DHT22;3600;48.568;7.870;2024-02-21T03:04:15;7.00;99.90
7117;DHT22;3600;48.568;7.870;2024-02-21T03:06:42;7.10;99.90
7117;DHT22;3600;48.568;7.870;2024-02-21T03:09:09;7.10;99.90
7117;DHT22;3600;48.568;7.870;2024-02-21T03:11:37;7.00;99.90
7117;DHT22;3600;48.568;7.870;2024-02-21T03:14:04;7.10;99.90
7117;DHT22;3600;48.568;7.870;2024-02-21T03:16:31;7.00;99.90
7117;DHT22;3600;48.568;7.870;2024-02-21T03:18:58;7.00;99.90
7117;DHT22;3600;48.568;7.870;2024-02-21T03:21:25;6.90;99.90
7117;DHT22;3600;48.568;7.870;2024-02-21T03:23:51;6.90;99.90
7117;DHT22;3600;48.568;7.870;2024-02-21T03:26:19;6.90;99.90
7117;DHT22;3600;48.568;7.870;2024-02-21T03:28:45;6.90;99.90
7117;DHT22;3600;48.568;7.870;2024-02-21T03:31:13;6.90;99.90
7117;DHT22;3600;48.568;7.870;2024-02-21T03:33:44;6.90;99.90
7117;DHT22;3600;48.568;7.870;2024-02-21T03:36:14;6.90;99.90
7117;DHT22;3600;48.568;7.870;2024-02-21T03:38:42;6.90;99.90
7117;DHT22;3600;48.568;7.870;2024-02-21T03:41:09;6.90;99.90
7117;DHT22;3600;48.568;7.870;2024-02-21T03:43:38;6.80;99.90
7117;DHT22;3600;48.568;7.870;2024-02-21T03:46:06;6.80;99.90
7117;DHT22;3600;48.568;7.870;2024-02-21T03:48:33;6.80;99.90
7117;DHT22;3600;48.568;7.870;2024-02-21T03:51:00;6.80;99.90
7117;DHT22;3600;48.568;7.870;2024-02-21T03:53:26;6.70;99.90
7117;DHT22;3600;48.568;7.870;2024-02-21T03:55:55;6.70;99.90
7117;DHT22;3600;48.568;7.870;2024-02-21T03:58:22;6.70;99.90
7117;DHT22;3600;48.568;7.870;2024-02-21T04:00:49;6.70;99.90
7117;DHT22;3600;48.568;7.870;2024-02-21T04:03:16;6.60;99.90
7117;DHT22;3600;48.568;7.870;2024-02-21T04:05:42;6.60;99.90
7117;DHT22;3600;48.568;7.870;2024-02-21T04:08:10;6.50;99.90
7117;DHT22;3600;48.568;7.870;2024-02-21T04:10:36;6.50;99.90
7117;DHT22;3600;48.568;7.870;2024-02-21T04:13:06;6.40;99.90
7117;DHT22;3600;48.568;7.870;2024-02-21T04:15:33;6.50;99.90
7117;DHT22;3600;48.568;7.870;2024-02-21T04:17:59;6.40;99.90
7117;DHT22;3600;48.568;7.870;2024-02-21T04:20:26;6.40;99.90
7117;DHT22;3600;48.568;7.870;2024-02-21T04:22:53;6.40;99.90
7117;DHT22;3600;48.568;7.870;2024-02-21T04:25:20;6.40;99.90
7117;DHT22;3600;48.568;7.870;2024-02-21T04:27:48;6.40;99.90
7117;DHT22;3600;48.568;7.870;2024-02-21T04:30:15;6.50;99.90
7117;DHT22;3600;48.568;7.870;2024-02-21T04:32:42;6.50;99.90
7117;DHT22;3600;48.568;7.870;2024-02-21T04:35:09;6.40;99.90
7117;DHT22;3600;48.568;7.870;2024-02-21T04:37:35;6.30;99.90
7117;DHT22;3600;48.568;7.870;2024-02-21T04:40:02;6.30;99.90
7117;DHT22;3600;48.568;7.870;2024-02-21T04:42:29;6.40;99.90
7117;DHT22;3600;48.568;7.870;2024-02-21T04:44:56;6.40;99.90
7117;DHT22;3600;48.568;7.870;2024-02-21T04:47:23;6.40;99.90
7117;DHT22;3600;48.568;7.870;2024-02-21T04:49:53;6.40;99.90
7117;DHT22;3600;48.568;7.870;2024-02-21T04:52:20;6.40;99.90
7117;DHT22;3600;48.568;7.870;2024-02-21T04:54:47;6.40;99.90
7117;DHT22;3600;48.568;7.870;2024-02-21T04:57:13;6.40;99.90
7117;DHT22;3600;48.568;7.870;2024-02-21T04:59:44;6.40;99.90
7117;DHT22;3600;48.568;7.870;2024-02-21T05:02:11;6.30;99.90
7117;DHT22;3600;48.568;7.870;2024-02-21T05:04:42;6.20;99.90
7117;DHT22;3600;48.568;7.870;2024-02-21T05:07:09;6.10;99.90
7117;DHT22;3600;48.568;7.870;2024-02-21T05:09:38;6.10;99.90
7117;DHT22;3600;48.568;7.870;2024-02-21T05:12:05;6.10;99.90
7117;DHT22;3600;48.568;7.870;2024-02-21T05:14:32;6.10;99.90
7117;DHT22;3600;48.568;7.870;2024-02-21T05:16:59;6.10;99.90
7117;DHT22;3600;48.568;7.870;2024-02-21T05:19:26;6.20;99.90
7117;DHT22;3600;48.568;7.870;2024-02-21T05:21:53;6.10;99.90
7117;DHT22;3600;48.568;7.870;2024-02-21T05:24:20;6.10;99.90
7117;DHT22;3600;48.568;7.870;2024-02-21T05:26:47;6.10;99.90
7117;DHT22;3600;48.568;7.870;2024-02-21T05:29:14;6.10;99.90
7117;DHT22;3600;48.568;7.870;2024-02-21T05:34:20;6.20;99.90
7117;DHT22;3600;48.568;7.870;2024-02-21T05:36:47;6.10;99.90
7117;DHT22;3600;48.568;7.870;2024-02-21T05:39:16;6.20;99.90
7117;DHT22;3600;48.568;7.870;2024-02-21T05:41:43;6.10;99.90
7117;DHT22;3600;48.568;7.870;2024-02-21T05:44:10;6.10;99.90
7117;DHT22;3600;48.568;7.870;2024-02-21T05:46:37;6.10;99.90
7117;DHT22;3600;48.568;7.870;2024-02-21T05:49:04;6.10;99.90
7117;DHT22;3600;48.568;7.870;2024-02-21T05:51:35;6.10;99.90
7117;DHT22;3600;48.568;7.870;2024-02-21T05:54:02;6.10;99.90
7117;DHT22;3600;48.568;7.870;2024-02-21T05:56:29;6.10;99.90
7117;DHT22;3600;48.568;7.870;2024-02-21T05:58:56;6.00;99.90
7117;DHT22;3600;48.568;7.870;2024-02-21T06:01:23;6.00;99.90
7117;DHT22;3600;48.568;7.870;2024-02-21T06:03:50;6.00;99.90
7117;DHT22;3600;48.568;7.870;2024-02-21T06:06:17;6.00;99.90
7117;DHT22;3600;48.568;7.870;2024-02-21T06:08:44;6.10;99.90
7117;DHT22;3600;48.568;7.870;2024-02-21T06:11:11;6.20;99.90
7117;DHT22;3600;48.568;7.870;2024-02-21T06:13:39;6.20;99.90
7117;DHT22;3600;48.568;7.870;2024-02-21T06:16:06;6.20;99.90
7117;DHT22;3600;48.568;7.870;2024-02-21T06:18:35;6.10;99.90
7117;DHT22;3600;48.568;7.870;2024-02-21T06:21:02;6.10;99.90
7117;DHT22;3600;48.568;7.870;2024-02-21T06:23:29;6.10;99.90
7117;DHT22;3600;48.568;7.870;2024-02-21T06:25:56;6.10;99.90
7117;DHT22;3600;48.568;7.870;2024-02-21T06:28:23;6.10;99.90
7117;DHT22;3600;48.568;7.870;2024-02-21T06:30:50;6.10;99.90
7117;DHT22;3600;48.568;7.870;2024-02-21T06:33:17;6.20;99.90
7117;DHT22;3600;48.568;7.870;2024-02-21T06:35:44;6.10;99.90
7117;DHT22;3600;48.568;7.870;2024-02-21T06:38:14;6.10;99.90
7117;DHT22;3600;48.568;7.870;2024-02-21T06:40:42;6.10;99.90
7117;DHT22;3600;48.568;7.870;2024-02-21T06:43:09;6.00;99.90
7117;DHT22;3600;48.568;7.870;2024-02-21T06:45:36;5.90;99.90
7117;DHT22;3600;48.568;7.870;2024-02-21T06:48:03;5.90;99.90
7117;DHT22;3600;48.568;7.870;2024-02-21T06:50:30;5.90;99.90
7117;DHT22;3600;48.568;7.870;2024-02-21T06:52:57;6.00;99.90
7117;DHT22;3600;48.568;7.870;2024-02-21T06:55:24;6.00;99.90
7117;DHT22;3600;48.568;7.870;2024-02-21T06:57:50;6.00;99.90
7117;DHT22;3600;48.568;7.870;2024-02-21T07:00:17;5.90;99.90
7117;DHT22;3600;48.568;7.870;2024-02-21T07:02:48;5.90;99.90
7117;DHT22;3600;48.568;7.870;2024-02-21T07:05:15;5.90;99.90
7117;DHT22;3600;48.568;7.870;2024-02-21T07:07:42;5.90;99.90
7117;DHT22;3600;48.568;7.870;2024-02-21T07:10:09;6.00;99.90
7117;DHT22;3600;48.568;7.870;2024-02-21T07:12:39;6.00;99.90
7117;DHT22;3600;48.568;7.870;2024-02-21T07:15:08;6.00;99.90
7117;DHT22;3600;48.568;7.870;2024-02-21T07:17:35;6.00;99.90
7117;DHT22;3600;48.568;7.870;2024-02-21T07:20:02;6.00;99.90
7117;DHT22;3600;48.568;7.870;2024-02-21T07:22:29;6.00;99.90
7117;DHT22;3600;48.568;7.870;2024-02-21T07:24:56;6.00;99.90
7117;DHT22;3600;48.568;7.870;2024-02-21T07:27:23;6.10;99.90
7117;DHT22;3600;48.568;7.870;2024-02-21T07:30:00;6.10;99.90
7117;DHT22;3600;48.568;7.870;2024-02-21T07:32:27;6.10;99.90
7117;DHT22;3600;48.568;7.870;2024-02-21T07:34:54;6.10;99.90
7117;DHT22;3600;48.568;7.870;2024-02-21T07:37:21;6.10;99.90
7117;DHT22;3600;48.568;7.870;2024-02-21T07:39:48;6.20;99.90
7117;DHT22;3600;48.568;7.870;2024-02-21T07:42:15;6.20;99.90
7117;DHT22;3600;48.568;7.870;2024-02-21T07:44:42;6.20;99.90
7117;DHT22;3600;48.568;7.870;2024-02-21T07:47:09;6.30;99.90
7117;DHT22;3600;48.568;7.870;2024-02-21T07:49:45;6.30;99.90
7117;DHT22;3600;48.568;7.870;2024-02-21T07:52:13;6.30;99.90
7117;DHT22;3600;48.568;7.870;2024-02-21T07:54:41;6.40;99.90
7117;DHT22;3600;48.568;7.870;2024-02-21T07:57:08;6.40;99.90
7117;DHT22;3600;48.568;7.870;2024-02-21T07:59:34;6.40;99.90
7117;DHT22;3600;48.568;7.870;2024-02-21T08:02:01;6.40;99.90
7117;DHT22;3600;48.568;7.870;2024-02-21T08:04:29;6.50;99.90
7117;DHT22;3600;48.568;7.870;2024-02-21T08:06:56;6.50;99.90
7117;DHT22;3600;48.568;7.870;2024-02-21T08:09:32;6.50;99.90
7117;DHT22;3600;48.568;7.870;2024-02-21T08:11:59;6.50;99.90
7117;DHT22;3600;48.568;7.870;2024-02-21T08:14:26;6.50;99.90
7117;DHT22;3600;48.568;7.870;2024-02-21T08:16:52;6.60;99.90
7117;DHT22;3600;48.568;7.870;2024-02-21T08:19:21;6.70;99.90
7117;DHT22;3600;48.568;7.870;2024-02-21T08:21:49;6.70;99.90
7117;DHT22;3600;48.568;7.870;2024-02-21T08:24:15;6.70;99.90
7117;DHT22;3600;48.568;7.870;2024-02-21T08:26:43;6.70;99.90
7117;DHT22;3600;48.568;7.870;2024-02-21T08:29:12;6.70;99.90
7117;DHT22;3600;48.568;7.870;2024-02-21T08:31:39;6.80;99.90
7117;DHT22;3600;48.568;7.870;2024-02-21T08:34:06;6.80;99.90
7117;DHT22;3600;48.568;7.870;2024-02-21T08:36:36;6.80;99.90
7117;DHT22;3600;48.568;7.870;2024-02-21T08:39:04;6.80;99.90
7117;DHT22;3600;48.568;7.870;2024-02-21T08:41:32;6.80;99.90
7117;DHT22;3600;48.568;7.870;2024-02-21T08:44:17;6.90;99.90
7117;DHT22;3600;48.568;7.870;2024-02-21T08:46:44;6.90;99.90
7117;DHT22;3600;48.568;7.870;2024-02-21T08:49:11;7.00;99.90
7117;DHT22;3600;48.568;7.870;2024-02-21T08:51:38;7.00;99.90
7117;DHT22;3600;48.568;7.870;2024-02-21T08:54:05;7.10;99.90
7117;DHT22;3600;48.568;7.870;2024-02-21T08:56:32;7.10;99.90
7117;DHT22;3600;48.568;7.870;2024-02-21T08:58:59;7.10;99.90
7117;DHT22;3600;48.568;7.870;2024-02-21T09:01:26;7.10;99.90
7117;DHT22;3600;48.568;7.870;2024-02-21T09:03:53;7.10;99.90
7117;DHT22;3600;48.568;7.870;2024-02-21T09:06:21;7.20;99.90
7117;DHT22;3600;48.568;7.870;2024-02-21T09:08:48;7.20;99.90
7117;DHT22;3600;48.568;7.870;2024-02-21T09:11:15;7.20;99.90
7117;DHT22;3600;48.568;7.870;2024-02-21T09:13:42;7.30;99.90
7117;DHT22;3600;48.568;7.870;2024-02-21T09:16:09;7.30;99.90
7117;DHT22;3600;48.568;7.870;2024-02-21T09:18:36;7.40;99.90
7117;DHT22;3600;48.568;7.870;2024-02-21T09:21:03;7.40;99.90
7117;DHT22;3600;48.568;7.870;2024-02-21T09:23:30;7.50;99.90
7117;DHT22;3600;48.568;7.870;2024-02-21T09:25:58;7.50;99.90
7117;DHT22;3600;48.568;7.870;2024-02-21T09:28:27;7.60;99.90
7117;DHT22;3600;48.568;7.870;2024-02-21T09:30:54;7.70;99.90
7117;DHT22;3600;48.568;7.870;2024-02-21T09:33:21;7.70;99.90
7117;DHT22;3600;48.568;7.870;2024-02-21T09:35:58;7.70;99.90
7117;DHT22;3600;48.568;7.870;2024-02-21T09:38:25;7.80;99.90
7117;DHT22;3600;48.568;7.870;2024-02-21T09:41:25;7.80;99.90
7117;DHT22;3600;48.568;7.870;2024-02-21T09:43:52;7.90;99.90
7117;DHT22;3600;48.568;7.870;2024-02-21T09:47:19;7.90;99.90
7117;DHT22;3600;48.568;7.870;2024-02-21T09:49:35;8.00;99.90
7117;DHT22;3600;48.568;7.870;2024-02-21T09:52:06;8.00;99.90
7117;DHT22;3600;48.568;7.870;2024-02-21T09:54:36;8.10;99.90
7117;DHT22;3600;48.568;7.870;2024-02-21T09:57:03;8.10;99.90
7117;DHT22;3600;48.568;7.870;2024-02-21T09:59:33;8.20;99.90
7117;DHT22;3600;48.568;7.870;2024-02-21T10:02:00;8.30;99.90
7117;DHT22;3600;48.568;7.870;2024-02-21T10:04:28;8.40;99.90
7117;DHT22;3600;48.568;7.870;2024-02-21T10:06:55;8.40;99.90
7117;DHT22;3600;48.568;7.870;2024-02-21T10:09:26;8.50;99.90
7117;DHT22;3600;48.568;7.870;2024-02-21T10:11:56;8.60;99.90
7117;DHT22;3600;48.568;7.870;2024-02-21T10:14:33;8.60;99.90
7117;DHT22;3600;48.568;7.870;2024-02-21T10:17:00;8.70;99.90
7117;DHT22;3600;48.568;7.870;2024-02-21T10:19:28;8.80;99.90
7117;DHT22;3600;48.568;7.870;2024-02-21T10:22:08;8.80;99.90
7117;DHT22;3600;48.568;7.870;2024-02-21T10:24:37;8.90;99.90
7117;DHT22;3600;48.568;7.870;2024-02-21T10:27:06;8.90;99.90
7117;DHT22;3600;48.568;7.870;2024-02-21T10:29:38;8.90;99.90
7117;DHT22;3600;48.568;7.870;2024-02-21T10:32:12;9.00;99.90
7117;DHT22;3600;48.568;7.870;2024-02-21T10:34:41;9.10;99.90
7117;DHT22;3600;48.568;7.870;2024-02-21T10:37:10;9.10;99.90
7117;DHT22;3600;48.568;7.870;2024-02-21T10:39:38;9.10;99.90
7117;DHT22;3600;48.568;7.870;2024-02-21T10:42:06;9.20;99.90
7117;DHT22;3600;48.568;7.870;2024-02-21T10:44:38;9.20;99.90
7117;DHT22;3600;48.568;7.870;2024-02-21T10:47:11;9.30;99.90
7117;DHT22;3600;48.568;7.870;2024-02-21T10:49:40;9.30;99.90
7117;DHT22;3600;48.568;7.870;2024-02-21T10:52:21;9.40;99.90
7117;DHT22;3600;48.568;7.870;2024-02-21T10:54:59;9.40;99.90
7117;DHT22;3600;48.568;7.870;2024-02-21T10:57:27;9.50;99.90
7117;DHT22;3600;48.568;7.870;2024-02-21T10:59:55;9.50;99.90
7117;DHT22;3600;48.568;7.870;2024-02-21T11:02:26;9.60;99.90
7117;DHT22;3600;48.568;7.870;2024-02-21T11:04:55;9.60;99.90
7117;DHT22;3600;48.568;7.870;2024-02-21T11:07:23;9.90;99.90
7117;DHT22;3600;48.568;7.870;2024-02-21T11:09:51;10.00;99.90
7117;DHT22;3600;48.568;7.870;2024-02-21T11:12:23;9.90;99.90
7117;DHT22;3600;48.568;7.870;2024-02-21T11:14:50;9.90;99.90
7117;DHT22;3600;48.568;7.870;2024-02-21T11:17:18;9.90;99.90
7117;DHT22;3600;48.568;7.870;2024-02-21T11:19:45;9.90;99.90
7117;DHT22;3600;48.568;7.870;2024-02-21T11:22:17;9.90;99.90
7117;DHT22;3600;48.568;7.870;2024-02-21T11:24:44;10.00;99.90
7117;DHT22;3600;48.568;7.870;2024-02-21T11:29:44;10.10;99.90
7117;DHT22;3600;48.568;7.870;2024-02-21T11:32:14;10.10;99.90
7117;DHT22;3600;48.568;7.870;2024-02-21T11:34:52;10.10;99.90
7117;DHT22;3600;48.568;7.870;2024-02-21T11:37:20;10.10;99.90
7117;DHT22;3600;48.568;7.870;2024-02-21T11:39:47;10.20;99.90
7117;DHT22;3600;48.568;7.870;2024-02-21T11:42:16;10.20;99.90
7117;DHT22;3600;48.568;7.870;2024-02-21T11:44:43;10.30;99.90
7117;DHT22;3600;48.568;7.870;2024-02-21T11:47:10;10.30;99.90
7117;DHT22;3600;48.568;7.870;2024-02-21T11:49:47;10.40;99.90
7117;DHT22;3600;48.568;7.870;2024-02-21T11:52:16;10.50;99.90
7117;DHT22;3600;48.568;7.870;2024-02-21T11:54:46;10.50;99.90
7117;DHT22;3600;48.568;7.870;2024-02-21T11:57:13;10.50;99.90
7117;DHT22;3600;48.568;7.870;2024-02-21T11:59:40;10.50;99.90
7117;DHT22;3600;48.568;7.870;2024-02-21T12:02:08;10.60;99.90
7117;DHT22;3600;48.568;7.870;2024-02-21T12:04:36;10.60;99.90
7117;DHT22;3600;48.568;7.870;2024-02-21T12:07:03;10.60;99.90
7117;DHT22;3600;48.568;7.870;2024-02-21T12:09:31;10.60;99.90
7117;DHT22;3600;48.568;7.870;2024-02-21T12:12:00;10.60;99.90
7117;DHT22;3600;48.568;7.870;2024-02-21T12:14:28;10.60;99.90
7117;DHT22;3600;48.568;7.870;2024-02-21T12:17:05;10.60;99.90
7117;DHT22;3600;48.568;7.870;2024-02-21T12:19:33;10.70;99.90
7117;DHT22;3600;48.568;7.870;2024-02-21T12:22:19;10.70;99.90
7117;DHT22;3600;48.568;7.870;2024-02-21T12:24:46;10.70;99.90
7117;DHT22;3600;48.568;7.870;2024-02-21T12:27:15;10.70;99.90
7117;DHT22;3600;48.568;7.870;2024-02-21T12:29:42;10.70;99.90
7117;DHT22;3600;48.568;7.870;2024-02-21T12:32:20;10.80;99.90
7117;DHT22;3600;48.568;7.870;2024-02-21T12:34:48;10.80;99.90
7117;DHT22;3600;48.568;7.870;2024-02-21T12:37:22;10.80;99.90
7117;DHT22;3600;48.568;7.870;2024-02-21T12:39:51;10.80;99.90
7117;DHT22;3600;48.568;7.870;2024-02-21T12:42:18;10.80;99.90
7117;DHT22;3600;48.568;7.870;2024-02-21T12:44:45;10.80;99.90
7117;DHT22;3600;48.568;7.870;2024-02-21T12:47:12;10.90;99.90
7117;DHT22;3600;48.568;7.870;2024-02-21T12:49:39;10.90;99.90
7117;DHT22;3600;48.568;7.870;2024-02-21T12:52:11;10.90;99.90
7117;DHT22;3600;48.568;7.870;2024-02-21T12:54:38;10.90;99.90
7117;DHT22;3600;48.568;7.870;2024-02-21T12:57:05;10.90;99.90
7117;DHT22;3600;48.568;7.870;2024-02-21T12:59:32;10.90;99.90
7117;DHT22;3600;48.568;7.870;2024-02-21T13:01:59;10.90;99.90
7117;DHT22;3600;48.568;7.870;2024-02-21T13:04:47;10.90;99.90
7117;DHT22;3600;48.568;7.870;2024-02-21T13:08:26;11.00;99.90
7117;DHT22;3600;48.568;7.870;2024-02-21T13:11:09;11.00;99.90
7117;DHT22;3600;48.568;7.870;2024-02-21T13:13:36;11.00;99.90
7117;DHT22;3600;48.568;7.870;2024-02-21T13:16:03;11.00;99.90
7117;DHT22;3600;48.568;7.870;2024-02-21T13:18:39;11.10;99.90
7117;DHT22;3600;48.568;7.870;2024-02-21T13:21:06;11.10;99.90
7117;DHT22;3600;48.568;7.870;2024-02-21T13:23:33;11.10;99.90
7117;DHT22;3600;48.568;7.870;2024-02-21T13:26:00;11.10;99.90
7117;DHT22;3600;48.568;7.870;2024-02-21T13:28:27;11.10;99.90
7117;DHT22;3600;48.568;7.870;2024-02-21T13:30:54;11.10;99.90
7117;DHT22;3600;48.568;7.870;2024-02-21T13:33:41;11.10;99.90
7117;DHT22;3600;48.568;7.870;2024-02-21T13:36:09;11.10;99.90
7117;DHT22;3600;48.568;7.870;2024-02-21T13:38:36;11.10;99.90
7117;DHT22;3600;48.568;7.870;2024-02-21T13:41:05;11.20;99.90
7117;DHT22;3600;48.568;7.870;2024-02-21T13:43:33;11.20;99.90
7117;DHT22;3600;48.568;7.870;2024-02-21T13:46:01;11.20;99.90
7117;DHT22;3600;48.568;7.870;2024-02-21T13:48:36;11.20;99.90
7117;DHT22;3600;48.568;7.870;2024-02-21T13:51:03;11.20;99.90
7117;DHT22;3600;48.568;7.870;2024-02-21T13:53:31;11.20;99.90
7117;DHT22;3600;48.568;7.870;2024-02-21T13:55:57;11.20;99.90
7117;DHT22;3600;48.568;7.870;2024-02-21T13:58:24;11.30;99.90
7117;DHT22;3600;48.568;7.870;2024-02-21T14:00:53;11.30;99.90
7117;DHT22;3600;48.568;7.870;2024-02-21T14:03:28;11.30;99.90
7117;DHT22;3600;48.568;7.870;2024-02-21T14:06:11;11.30;99.90
7117;DHT22;3600;48.568;7.870;2024-02-21T14:08:38;11.30;99.90
7117;DHT22;3600;48.568;7.870;2024-02-21T14:11:12;11.30;99.90
7117;DHT22;3600;48.568;7.870;2024-02-21T14:13:41;11.20;99.90
7117;DHT22;3600;48.568;7.870;2024-02-21T14:16:11;11.20;99.90
7117;DHT22;3600;48.568;7.870;2024-02-21T14:18:41;11.20;99.90
7117;DHT22;3600;48.568;7.870;2024-02-21T14:21:11;11.20;99.90
7117;DHT22;3600;48.568;7.870;2024-02-21T14:23:38;11.20;99.90
7117;DHT22;3600;48.568;7.870;2024-02-21T14:26:05;11.30;99.90
7117;DHT22;3600;48.568;7.870;2024-02-21T14:28:33;11.30;99.90
7117;DHT22;3600;48.568;7.870;2024-02-21T14:31:03;11.30;99.90
7117;DHT22;3600;48.568;7.870;2024-02-21T14:33:32;11.30;99.90
7117;DHT22;3600;48.568;7.870;2024-02-21T14:36:00;11.30;99.90
7117;DHT22;3600;48.568;7.870;2024-02-21T14:38:27;11.30;99.90
7117;DHT22;3600;48.568;7.870;2024-02-21T14:40:54;11.30;99.90
7117;DHT22;3600;48.568;7.870;2024-02-21T14:43:21;11.30;99.90
7117;DHT22;3600;48.568;7.870;2024-02-21T14:45:49;11.30;99.90
7117;DHT22;3600;48.568;7.870;2024-02-21T14:48:16;11.30;99.90
7117;DHT22;3600;48.568;7.870;2024-02-21T14:50:43;11.30;99.90
7117;DHT22;3600;48.568;7.870;2024-02-21T14:53:10;11.30;99.90
7117;DHT22;3600;48.568;7.870;2024-02-21T14:55:37;11.20;99.90
7117;DHT22;3600;48.568;7.870;2024-02-21T14:58:08;11.30;99.90
7117;DHT22;3600;48.568;7.870;2024-02-21T15:00:35;11.30;99.90
7117;DHT22;3600;48.568;7.870;2024-02-21T15:03:03;11.30;99.90
7117;DHT22;3600;48.568;7.870;2024-02-21T15:05:37;11.30;99.90
7117;DHT22;3600;48.568;7.870;2024-02-21T15:08:20;11.30;99.90
7117;DHT22;3600;48.568;7.870;2024-02-21T15:10:49;11.20;99.90
7117;DHT22;3600;48.568;7.870;2024-02-21T15:13:17;11.10;99.90
7117;DHT22;3600;48.568;7.870;2024-02-21T15:15:44;11.20;99.90
7117;DHT22;3600;48.568;7.870;2024-02-21T15:18:11;11.20;99.90
7117;DHT22;3600;48.568;7.870;2024-02-21T15:20:38;11.20;99.90
7117;DHT22;3600;48.568;7.870;2024-02-21T15:23:05;11.20;99.90
7117;DHT22;3600;48.568;7.870;2024-02-21T15:25:32;11.20;99.90
7117;DHT22;3600;48.568;7.870;2024-02-21T15:28:00;11.10;99.90
7117;DHT22;3600;48.568;7.870;2024-02-21T15:30:29;11.10;99.90
7117;DHT22;3600;48.568;7.870;2024-02-21T15:32:59;11.10;99.90
7117;DHT22;3600;48.568;7.870;2024-02-21T15:35:30;11.10;99.90
7117;DHT22;3600;48.568;7.870;2024-02-21T15:37:58;11.10;99.90
7117;DHT22;3600;48.568;7.870;2024-02-21T15:40:26;11.00;99.90
7117;DHT22;3600;48.568;7.870;2024-02-21T15:42:52;11.00;99.90
7117;DHT22;3600;48.568;7.870;2024-02-21T15:45:20;11.00;99.90
7117;DHT22;3600;48.568;7.870;2024-02-21T15:47:48;11.00;99.90
7117;DHT22;3600;48.568;7.870;2024-02-21T15:50:15;11.00;99.90
7117;DHT22;3600;48.568;7.870;2024-02-21T15:52:52;11.10;99.90
7117;DHT22;3600;48.568;7.870;2024-02-21T15:55:19;11.00;99.90
7117;DHT22;3600;48.568;7.870;2024-02-21T15:58:15;11.00;99.90
7117;DHT22;3600;48.568;7.870;2024-02-21T16:00:42;11.00;99.90
7117;DHT22;3600;48.568;7.870;2024-02-21T16:03:09;11.00;99.90
7117;DHT22;3600;48.568;7.870;2024-02-21T16:05:37;11.00;99.90
7117;DHT22;3600;48.568;7.870;2024-02-21T16:08:06;11.10;99.90
7117;DHT22;3600;48.568;7.870;2024-02-21T16:10:39;11.10;99.90
7117;DHT22;3600;48.568;7.870;2024-02-21T16:13:06;11.00;99.90
7117;DHT22;3600;48.568;7.870;2024-02-21T16:15:39;11.00;99.90
7117;DHT22;3600;48.568;7.870;2024-02-21T16:18:06;11.00;99.90
7117;DHT22;3600;48.568;7.870;2024-02-21T16:20:33;11.00;99.90
7117;DHT22;3600;48.568;7.870;2024-02-21T16:23:00;10.90;99.90
7117;DHT22;3600;48.568;7.870;2024-02-21T16:25:56;10.90;99.90
7117;DHT22;3600;48.568;7.870;2024-02-21T16:28:23;10.90;99.90